logo tempoitalia

Diretta Meteo Aosta, Italiavenerdì 23 luglio ore 20:20

Mappa
Sereno 26 °C Sereno 24 Ore: T.min 18 T.max 30
Ponente Est Km/h 25.9 Punto di rugiada: 16 °C Umidità: 54% Visibilità: 10 Km
Il sole sorge alle: 06:02 Il sole tramonta alle: 21:11
23 Luglio 2021 20:20 tempo osservato: Sereno Sereno 26 54 1016 vento: Nord E 25.9
23 Luglio 2021 18:50 tempo osservato: Sereno Sereno 28 48 1013 vento: Nord E 31.5
23 Luglio 2021 18:20 tempo osservato: Sereno Sereno 28 48 1013 vento: Nord E 35.2
23 Luglio 2021 17:50 tempo osservato: Sereno Sereno 29 48 1013 vento: Nord E 35.2
23 Luglio 2021 17:20 tempo osservato: Sereno Sereno 29 48 1013 vento: Nord E 35.2
23 Luglio 2021 16:50 tempo osservato: Sereno Sereno 29 48 1013 vento: Nord E 35.2
23 Luglio 2021 16:20 tempo osservato: Sereno Sereno 29 48 1013 vento: Nord E 33.3
23 Luglio 2021 15:50 tempo osservato: Sereno Sereno 30 42 1013 vento: Nord E 31.5
23 Luglio 2021 15:20 tempo osservato: Sereno Sereno 29 48 1014 vento: Nord E 35.2
23 Luglio 2021 14:20 tempo osservato: Sereno Sereno 29 45 1014 vento: Nord E 29.6
23 Luglio 2021 13:50 tempo osservato: Sereno Sereno 29 42 1014 vento: Nord E 25.9
23 Luglio 2021 13:20 tempo osservato: Sereno Sereno 29 42 1015 vento: Nord E 22.2
23 Luglio 2021 12:50 tempo osservato: Sereno Sereno 28 45 1015 vento: Nord E 18.5
23 Luglio 2021 12:20 tempo osservato: Sereno Sereno 28 45 1016 vento: Nord E 18.5
23 Luglio 2021 11:50 tempo osservato: Sereno Sereno 27 44 1016 vento: Nord E 7.4
23 Luglio 2021 11:20 tempo osservato: Sereno Sereno 27 44 1017 vento: Nord N 5.5
23 Luglio 2021 10:50 tempo osservato: Sereno Sereno 26 41 1017 vento: Nord N 0
23 Luglio 2021 09:50 tempo osservato: Sereno Sereno 24 47 1018 vento: Nord N 1.8
23 Luglio 2021 09:20 tempo osservato: Sereno Sereno 23 46 1018 vento: Nord N 3.7
23 Luglio 2021 08:50 tempo osservato: Sereno Sereno 21 56 1019 vento: Nord N 3.7
23 Luglio 2021 08:20 tempo osservato: Sereno Sereno 20 59 1019 vento: Nord N 1.8
23 Luglio 2021 07:50 tempo osservato: Sereno Sereno 18 72 1019 vento: Nord N 1.8
23 Luglio 2021 07:20 tempo osservato: Sereno Sereno 18 77 1019 vento: Nord N 1.8
23 Luglio 2021 06:50 tempo osservato: Molto Nuvoloso Molto Nuvoloso 19 68 1019 vento: Nord N 1.8
23 Luglio 2021 06:20 tempo osservato: Molto Nuvoloso Molto Nuvoloso 18 72 1019 vento: Nord N 0
23 Luglio 2021 05:50 tempo osservato: Molto Nuvoloso Molto Nuvoloso 19 72 1019 vento: Nord N 0